createdAt,value
2017-10-21T00:00:03.052Z,6.44
2017-10-21T00:01:03.016Z,6.42
2017-10-21T00:02:02.996Z,6.44
2017-10-21T00:03:02.967Z,6.28
2017-10-21T00:04:02.962Z,6.24
2017-10-21T00:05:02.939Z,6.26
2017-10-21T00:06:02.911Z,6.24
2017-10-21T00:07:02.887Z,6.14
2017-10-21T00:08:02.869Z,6.12
2017-10-21T00:09:02.841Z,6.09
2017-10-21T00:10:02.815Z,6.05
2017-10-21T00:11:02.797Z,6.09
2017-10-21T00:12:02.797Z,5.99
2017-10-21T00:13:02.755Z,5.99
2017-10-21T00:14:02.774Z,6.01
2017-10-21T00:15:02.735Z,5.98
2017-10-21T00:16:02.706Z,6.01
2017-10-21T00:17:02.679Z,5.97
2017-10-21T00:18:02.663Z,5.97
2017-10-21T00:19:02.626Z,5.98
2017-10-21T00:20:02.618Z,5.97
2017-10-21T00:21:02.578Z,6.02
2017-10-21T00:22:02.581Z,5.97
2017-10-21T00:23:02.539Z,5.90
2017-10-21T00:24:02.535Z,6.01
2017-10-21T00:25:02.504Z,5.97
2017-10-21T00:26:02.465Z,5.93
2017-10-21T00:27:03.127Z,5.99
2017-10-21T00:28:02.425Z,5.97
2017-10-21T00:29:02.429Z,6.11
2017-10-21T00:30:02.390Z,6.11
2017-10-21T00:31:02.369Z,6.11
2017-10-21T00:32:02.341Z,6.08
2017-10-21T00:33:03.147Z,6.20
2017-10-21T00:34:02.296Z,6.26
2017-10-21T00:35:02.286Z,6.31
2017-10-21T00:36:02.261Z,6.36
2017-10-21T00:37:02.239Z,6.45
2017-10-21T00:38:02.210Z,6.52
2017-10-21T00:39:02.188Z,6.56
2017-10-21T00:40:02.171Z,6.57
2017-10-21T00:41:02.144Z,6.67
2017-10-21T00:42:02.131Z,6.74
2017-10-21T00:43:02.109Z,6.70
2017-10-21T00:44:02.086Z,6.75
2017-10-21T00:45:02.066Z,6.78
2017-10-21T00:46:02.042Z,6.78
2017-10-21T00:47:02.024Z,6.79
2017-10-21T00:48:01.991Z,6.88
2017-10-21T00:49:02.007Z,6.87
2017-10-21T00:50:01.961Z,6.93
2017-10-21T00:51:01.925Z,6.93
2017-10-21T00:52:01.915Z,6.99
2017-10-21T00:53:01.896Z,7.07
2017-10-21T00:54:01.883Z,7.02
2017-10-21T00:55:01.836Z,7.05
2017-10-21T00:56:01.818Z,7.13
2017-10-21T00:57:01.807Z,7.13
2017-10-21T00:58:01.774Z,7.10
2017-10-21T00:59:01.755Z,7.13
2017-10-21T01:00:01.735Z,7.13
2017-10-21T01:01:01.713Z,7.23
2017-10-21T01:02:01.684Z,7.24
2017-10-21T01:03:01.672Z,7.20
2017-10-21T01:04:01.906Z,7.31
2017-10-21T01:05:01.651Z,7.33
2017-10-21T01:06:01.617Z,7.25
2017-10-21T01:07:01.584Z,7.31
2017-10-21T01:08:01.565Z,7.29
2017-10-21T01:09:01.538Z,7.25
2017-10-21T01:10:01.519Z,7.38
2017-10-21T01:11:01.488Z,7.40
2017-10-21T01:12:01.478Z,7.39
2017-10-21T01:13:01.468Z,7.43
2017-10-21T01:14:01.434Z,7.39
2017-10-21T01:15:01.404Z,7.39
2017-10-21T01:16:01.381Z,7.48
2017-10-21T01:17:01.372Z,7.40
2017-10-21T01:18:01.343Z,7.45
2017-10-21T01:19:01.337Z,7.47
2017-10-21T01:20:01.296Z,7.43
2017-10-21T01:21:01.279Z,7.40
2017-10-21T01:22:01.264Z,7.48
2017-10-21T01:23:01.235Z,7.56
2017-10-21T01:24:01.210Z,7.53
2017-10-21T01:25:01.204Z,7.53
2017-10-21T01:26:01.189Z,7.53
2017-10-21T01:27:01.158Z,7.56
2017-10-21T01:28:01.124Z,7.67
2017-10-21T01:29:01.095Z,7.58
2017-10-21T01:30:01.095Z,7.56
2017-10-21T01:31:01.060Z,7.72
2017-10-21T01:32:01.050Z,7.67
2017-10-21T01:33:01.009Z,7.61
2017-10-21T01:34:00.997Z,7.73
2017-10-21T01:35:00.980Z,7.66
2017-10-21T01:36:00.969Z,7.67
2017-10-21T01:37:00.937Z,7.73
2017-10-21T01:38:00.910Z,7.77
2017-10-21T01:39:00.905Z,7.67
2017-10-21T01:40:00.875Z,7.76
2017-10-21T01:41:00.848Z,7.70
2017-10-21T01:42:00.848Z,7.76
2017-10-21T01:43:00.812Z,7.79
2017-10-21T01:44:00.777Z,7.85
2017-10-21T01:45:00.759Z,7.76
2017-10-21T01:46:00.751Z,7.76
2017-10-21T01:47:00.709Z,7.75
2017-10-21T01:48:00.699Z,7.69
2017-10-21T01:49:00.670Z,7.70
2017-10-21T01:50:00.664Z,7.76
2017-10-21T01:51:00.630Z,7.75
2017-10-21T01:52:00.605Z,7.76
2017-10-21T01:53:00.597Z,7.76
2017-10-21T01:54:00.562Z,7.77
2017-10-21T01:55:00.545Z,7.77
2017-10-21T01:56:00.520Z,7.82
2017-10-21T01:57:00.516Z,7.77
2017-10-21T01:58:00.472Z,7.80
2017-10-21T01:59:00.448Z,7.80
2017-10-21T02:00:00.433Z,7.82
2017-10-21T02:01:00.439Z,7.88
2017-10-21T02:02:00.420Z,7.80
2017-10-21T02:03:00.372Z,7.77
2017-10-21T02:04:00.375Z,7.83
2017-10-21T02:05:00.335Z,7.80
2017-10-21T02:06:00.313Z,7.76
2017-10-21T02:07:00.278Z,7.75
2017-10-21T02:08:00.265Z,7.79
2017-10-21T02:09:00.246Z,7.87
2017-10-21T02:10:00.244Z,7.90
2017-10-21T02:11:00.204Z,7.91
2017-10-21T02:12:00.174Z,7.82
2017-10-21T02:13:00.165Z,7.87
2017-10-21T02:14:00.134Z,7.88
2017-10-21T02:15:00.117Z,7.90
2017-10-21T02:16:00.086Z,7.87
2017-10-21T02:17:00.075Z,7.90
2017-10-21T02:18:00.060Z,7.93
2017-10-21T02:19:00.035Z,7.90
2017-10-21T02:20:00.122Z,7.90
2017-10-21T02:20:59.972Z,7.91
2017-10-21T02:21:59.970Z,7.88
2017-10-21T02:22:59.938Z,7.91
2017-10-21T02:23:59.921Z,7.97
2017-10-21T02:24:59.892Z,7.98
2017-10-21T02:25:59.880Z,7.97
2017-10-21T02:26:59.854Z,7.87
2017-10-21T02:27:59.833Z,7.85
2017-10-21T02:28:59.804Z,7.93
2017-10-21T02:29:59.799Z,8.03
2017-10-21T02:30:59.774Z,7.98
2017-10-21T02:31:59.745Z,8.05
2017-10-21T02:32:59.731Z,8.06
2017-10-21T02:33:59.706Z,8.08
2017-10-21T02:34:59.687Z,8.08
2017-10-21T02:35:59.669Z,8.12
2017-10-21T02:36:59.650Z,8.09
2017-10-21T02:37:59.612Z,8.10
2017-10-21T02:38:59.609Z,8.06
2017-10-21T02:39:59.594Z,8.09
2017-10-21T02:40:59.571Z,7.98
2017-10-21T02:41:59.538Z,8.08
2017-10-21T02:42:59.508Z,8.03
2017-10-21T02:43:59.519Z,8.12
2017-10-21T02:44:59.468Z,8.12
2017-10-21T02:45:59.449Z,8.19
2017-10-21T02:46:59.435Z,8.15
2017-10-21T02:47:59.412Z,8.01
2017-10-21T02:48:59.383Z,8.15
2017-10-21T02:49:59.376Z,8.15
2017-10-21T02:50:59.343Z,8.05
2017-10-21T02:51:59.337Z,8.10
2017-10-21T02:52:59.308Z,8.15
2017-10-21T02:53:59.280Z,8.05
2017-10-21T02:54:59.246Z,8.12
2017-10-21T02:55:59.236Z,8.09
2017-10-21T02:56:59.212Z,8.12
2017-10-21T02:57:59.189Z,8.05
2017-10-21T02:58:59.187Z,8.06
2017-10-21T02:59:59.148Z,8.09
2017-10-21T03:00:59.122Z,8.03
2017-10-21T03:01:59.127Z,8.01
2017-10-21T03:02:59.084Z,8.05
2017-10-21T03:03:59.065Z,8.12
2017-10-21T03:04:59.063Z,8.09
2017-10-21T03:05:59.066Z,8.01
2017-10-21T03:06:58.995Z,8.05
2017-10-21T03:07:58.972Z,8.05
2017-10-21T03:08:58.979Z,8.12
2017-10-21T03:09:58.927Z,8.18
2017-10-21T03:10:58.907Z,8.10
2017-10-21T03:11:58.894Z,8.18
2017-10-21T03:12:58.891Z,8.15
2017-10-21T03:13:58.849Z,8.10
2017-10-21T03:14:58.830Z,8.12
2017-10-21T03:15:58.815Z,8.16
2017-10-21T03:16:58.783Z,8.16
2017-10-21T03:17:58.764Z,8.23
2017-10-21T03:18:58.734Z,8.15
2017-10-21T03:19:58.733Z,8.12
2017-10-21T03:20:58.706Z,8.12
2017-10-21T03:21:58.679Z,8.10
2017-10-21T03:22:58.658Z,8.09
2017-10-21T03:23:58.641Z,8.10
2017-10-21T03:24:58.621Z,8.13
2017-10-21T03:25:58.592Z,8.18
2017-10-21T03:26:58.583Z,8.18
2017-10-21T03:27:58.548Z,8.16
2017-10-21T03:28:59.707Z,8.18
2017-10-21T03:29:58.509Z,8.18
2017-10-21T03:30:58.513Z,8.24
2017-10-21T03:31:58.468Z,8.20
2017-10-21T03:32:58.440Z,8.19
2017-10-21T03:33:58.434Z,8.27
2017-10-21T03:34:58.390Z,8.23
2017-10-21T03:35:58.377Z,8.26
2017-10-21T03:36:58.352Z,8.28
2017-10-21T03:37:58.353Z,8.31
2017-10-21T03:38:58.311Z,8.34
2017-10-21T03:39:58.303Z,8.33
2017-10-21T03:40:58.268Z,8.31
2017-10-21T03:41:58.256Z,8.38
2017-10-21T03:42:58.237Z,8.36
2017-10-21T03:43:58.212Z,8.36
2017-10-21T03:44:58.188Z,8.38
2017-10-21T03:45:58.162Z,8.34
2017-10-21T03:46:58.146Z,8.44
2017-10-21T03:47:58.123Z,8.41
2017-10-21T03:48:58.118Z,8.41
2017-10-21T03:49:58.080Z,8.44
2017-10-21T03:50:58.064Z,8.45
2017-10-21T03:51:58.040Z,8.45
2017-10-21T03:52:58.036Z,8.48
2017-10-21T03:53:57.995Z,8.48
2017-10-21T03:54:57.982Z,8.48
2017-10-21T03:55:57.958Z,8.58
2017-10-21T03:56:57.944Z,8.45
2017-10-21T03:57:57.913Z,8.55
2017-10-21T03:58:57.879Z,8.53
2017-10-21T03:59:57.881Z,8.55
2017-10-21T04:00:57.852Z,8.56
2017-10-21T04:01:57.817Z,8.56
2017-10-21T04:02:57.805Z,8.60
2017-10-21T04:03:57.780Z,8.64
2017-10-21T04:04:57.749Z,8.66
2017-10-21T04:05:57.732Z,8.64
2017-10-21T04:06:57.736Z,8.69
2017-10-21T04:07:57.722Z,8.71
2017-10-21T04:08:57.678Z,8.61
2017-10-21T04:09:57.669Z,8.61
2017-10-21T04:10:57.652Z,8.64
2017-10-21T04:11:57.617Z,8.66
2017-10-21T04:12:57.587Z,8.69
2017-10-21T04:13:57.573Z,8.67
2017-10-21T04:14:57.539Z,8.70
2017-10-21T04:15:57.535Z,8.66
2017-10-21T04:16:57.495Z,8.64
2017-10-21T04:17:57.508Z,8.66
2017-10-21T04:18:57.478Z,8.67
2017-10-21T04:19:57.444Z,8.67
2017-10-21T04:20:57.421Z,8.70
2017-10-21T04:21:57.398Z,8.58
2017-10-21T04:22:57.389Z,8.63
2017-10-21T04:23:57.367Z,8.69
2017-10-21T04:24:57.361Z,8.66
2017-10-21T04:25:57.310Z,8.63
2017-10-21T04:26:57.299Z,8.55
2017-10-21T04:27:57.274Z,8.58
2017-10-21T04:28:57.254Z,8.64
2017-10-21T04:29:57.232Z,8.69
2017-10-21T04:30:57.213Z,8.67
2017-10-21T04:31:57.187Z,8.61
2017-10-21T04:32:57.170Z,8.67
2017-10-21T04:33:57.148Z,8.61
2017-10-21T04:34:57.115Z,8.71
2017-10-21T04:35:57.098Z,8.66
2017-10-21T04:36:57.068Z,8.64
2017-10-21T04:37:57.061Z,8.67
2017-10-21T04:38:57.040Z,8.66
2017-10-21T04:39:57.029Z,8.67
2017-10-21T04:40:56.988Z,8.66
2017-10-21T04:41:56.968Z,8.73
2017-10-21T04:42:56.958Z,8.70
2017-10-21T04:43:56.941Z,8.70
2017-10-21T04:44:56.911Z,8.74
2017-10-21T04:45:56.890Z,8.79
2017-10-21T04:46:56.869Z,8.69
2017-10-21T04:47:56.852Z,8.73
2017-10-21T04:48:56.825Z,8.71
2017-10-21T04:49:56.819Z,8.78
2017-10-21T04:50:56.777Z,8.71
2017-10-21T04:51:56.756Z,8.81
2017-10-21T04:52:56.739Z,8.73
2017-10-21T04:53:56.718Z,8.78
2017-10-21T04:54:56.703Z,8.81
2017-10-21T04:55:56.676Z,8.78
2017-10-21T04:56:56.655Z,8.82
2017-10-21T04:57:56.633Z,8.78
2017-10-21T04:58:56.610Z,8.82
2017-10-21T04:59:56.601Z,8.88
2017-10-21T05:00:56.566Z,8.91
2017-10-21T05:01:56.563Z,8.81
2017-10-21T05:02:56.527Z,8.87
2017-10-21T05:03:56.511Z,8.87
2017-10-21T05:04:56.485Z,8.84
2017-10-21T05:05:56.467Z,8.88
2017-10-21T05:06:56.444Z,8.97
2017-10-21T05:07:56.419Z,8.87
2017-10-21T05:08:57.191Z,8.85
2017-10-21T05:09:56.381Z,8.92
2017-10-21T05:10:56.354Z,8.94
2017-10-21T05:11:56.361Z,8.91
2017-10-21T05:12:56.315Z,8.92
2017-10-21T05:13:56.289Z,8.97
2017-10-21T05:14:56.292Z,9.00
2017-10-21T05:15:56.249Z,9.04
2017-10-21T05:16:56.233Z,8.97
2017-10-21T05:17:56.214Z,9.02
2017-10-21T05:18:56.186Z,9.04
2017-10-21T05:19:56.182Z,9.04
2017-10-21T05:20:56.144Z,8.99
2017-10-21T05:21:56.121Z,9.03
2017-10-21T05:22:56.101Z,8.97
2017-10-21T05:23:56.086Z,9.06
2017-10-21T05:24:56.067Z,9.16
2017-10-21T05:25:56.061Z,9.13
2017-10-21T05:26:56.029Z,9.16
2017-10-21T05:27:56.004Z,9.08
2017-10-21T05:28:55.972Z,9.08
2017-10-21T05:29:55.963Z,9.18
2017-10-21T05:30:56.007Z,9.19
2017-10-21T05:31:55.909Z,9.13
2017-10-21T05:32:55.888Z,9.13
2017-10-21T05:33:55.883Z,9.10
2017-10-21T05:34:55.856Z,9.08
2017-10-21T05:35:55.827Z,9.18
2017-10-21T05:36:56.157Z,9.21
2017-10-21T05:37:55.802Z,9.22
2017-10-21T05:38:55.756Z,9.26
2017-10-21T05:39:55.855Z,9.25
2017-10-21T05:40:55.729Z,9.22
2017-10-21T05:41:55.709Z,9.34
2017-10-21T05:42:55.694Z,9.26
2017-10-21T05:43:55.669Z,9.28
2017-10-21T05:44:56.275Z,9.29
2017-10-21T05:45:55.632Z,9.29
2017-10-21T05:46:55.597Z,9.32
2017-10-21T05:47:55.604Z,9.28
2017-10-21T05:48:55.592Z,9.28
2017-10-21T05:49:55.562Z,9.36
2017-10-21T05:50:55.527Z,9.44
2017-10-21T05:51:55.492Z,9.34
2017-10-21T05:52:55.490Z,9.39
2017-10-21T05:53:55.472Z,9.40
2017-10-21T05:54:55.462Z,9.36
2017-10-21T05:55:55.434Z,9.48
2017-10-21T05:56:55.392Z,9.31
2017-10-21T05:57:55.374Z,9.39
2017-10-21T05:58:55.355Z,9.40
2017-10-21T05:59:55.337Z,9.40
2017-10-21T06:00:55.308Z,9.37
2017-10-21T06:01:55.294Z,9.43
2017-10-21T06:02:55.259Z,9.47
2017-10-21T06:03:55.376Z,9.47
2017-10-21T06:04:55.217Z,9.46
2017-10-21T06:05:55.221Z,9.47
2017-10-21T06:06:55.186Z,9.48
2017-10-21T06:07:55.166Z,9.46
2017-10-21T06:08:55.142Z,9.47
2017-10-21T06:09:55.120Z,9.50
2017-10-21T06:10:55.104Z,9.48
2017-10-21T06:11:55.087Z,9.50
2017-10-21T06:12:55.059Z,9.55
2017-10-21T06:13:55.048Z,9.51
2017-10-21T06:14:55.013Z,9.48
2017-10-21T06:15:54.997Z,9.48
2017-10-21T06:16:54.978Z,9.50
2017-10-21T06:17:54.953Z,9.58
2017-10-21T06:18:54.932Z,9.55
2017-10-21T06:19:54.905Z,9.58
2017-10-21T06:20:54.890Z,9.64
2017-10-21T06:21:54.873Z,9.55
2017-10-21T06:22:54.845Z,9.56
2017-10-21T06:23:54.834Z,9.59
2017-10-21T06:24:54.813Z,9.64
2017-10-21T06:25:54.782Z,9.66
2017-10-21T06:26:54.777Z,9.66
2017-10-21T06:27:54.746Z,9.64
2017-10-21T06:28:54.734Z,9.64
2017-10-21T06:29:54.717Z,9.61
2017-10-21T06:30:54.694Z,9.65
2017-10-21T06:31:54.685Z,9.66
2017-10-21T06:32:54.657Z,9.69
2017-10-21T06:33:54.631Z,9.64
2017-10-21T06:34:54.617Z,9.72
2017-10-21T06:35:54.574Z,9.74
2017-10-21T06:36:54.561Z,9.72
2017-10-21T06:37:54.558Z,9.73
2017-10-21T06:38:54.522Z,9.74
2017-10-21T06:39:54.532Z,9.68
2017-10-21T06:40:54.471Z,9.69
2017-10-21T06:41:54.466Z,9.69
2017-10-21T06:42:54.427Z,9.64
2017-10-21T06:43:54.411Z,9.76
2017-10-21T06:44:54.391Z,9.65
2017-10-21T06:45:54.372Z,9.66
2017-10-21T06:46:54.354Z,9.65
2017-10-21T06:47:54.328Z,9.65
2017-10-21T06:48:54.311Z,9.65
2017-10-21T06:49:54.296Z,9.58
2017-10-21T06:50:54.268Z,9.51
2017-10-21T06:51:54.258Z,9.47
2017-10-21T06:52:54.236Z,9.50
2017-10-21T06:53:54.196Z,9.54
2017-10-21T06:54:54.188Z,9.51
2017-10-21T06:55:54.170Z,9.50
2017-10-21T06:56:54.155Z,9.58
2017-10-21T06:57:54.122Z,9.56
2017-10-21T06:58:54.099Z,9.64
2017-10-21T06:59:54.084Z,9.64
2017-10-21T07:00:54.053Z,9.61
2017-10-21T07:01:54.035Z,9.65
2017-10-21T07:02:54.022Z,9.73
2017-10-21T07:03:54.020Z,9.77
2017-10-21T07:04:53.969Z,9.86
2017-10-21T07:05:53.955Z,9.95
2017-10-21T07:06:53.953Z,10.12
2017-10-21T07:07:53.921Z,10.28
2017-10-21T07:08:53.895Z,10.37
2017-10-21T07:09:53.906Z,10.37
2017-10-21T07:10:53.876Z,10.56
2017-10-21T07:11:53.888Z,10.69
2017-10-21T07:12:53.839Z,10.79
2017-10-21T07:13:53.827Z,10.96
2017-10-21T07:14:53.876Z,10.97
2017-10-21T07:15:53.752Z,11.07
2017-10-21T07:16:53.894Z,10.99
2017-10-21T07:17:53.725Z,10.96
2017-10-21T07:18:53.725Z,10.90
2017-10-21T07:19:53.791Z,10.74
2017-10-21T07:20:54.267Z,10.82
2017-10-21T07:21:53.645Z,10.76
2017-10-21T07:22:53.619Z,10.75
2017-10-21T07:23:53.584Z,10.71
2017-10-21T07:24:53.581Z,10.67
2017-10-21T07:25:53.581Z,10.68
2017-10-21T07:26:53.571Z,10.78
2017-10-21T07:27:53.784Z,10.76
2017-10-21T07:28:53.516Z,10.78
2017-10-21T07:29:53.461Z,10.75
2017-10-21T07:30:53.457Z,10.92
2017-10-21T07:31:53.437Z,10.97
2017-10-21T07:32:53.407Z,11.02
2017-10-21T07:33:53.427Z,11.04
2017-10-21T07:34:53.402Z,11.04
2017-10-21T07:35:53.344Z,10.97
2017-10-21T07:36:53.364Z,11.04
2017-10-21T07:37:53.326Z,10.97
2017-10-21T07:38:53.303Z,11.04
2017-10-21T07:39:53.292Z,10.96
2017-10-21T07:40:53.295Z,11.11
2017-10-21T07:41:53.242Z,11.07
2017-10-21T07:42:53.206Z,11.07
2017-10-21T07:43:53.393Z,11.05
2017-10-21T07:44:53.156Z,11.08
2017-10-21T07:45:53.315Z,11.11
2017-10-21T07:46:53.127Z,11.12
2017-10-21T07:47:53.146Z,11.14
2017-10-21T07:48:53.106Z,11.15
2017-10-21T07:49:53.082Z,11.23
2017-10-21T07:50:53.046Z,11.25
2017-10-21T07:51:53.069Z,11.27
2017-10-21T07:52:53.036Z,11.37
2017-10-21T07:53:53.012Z,11.48
2017-10-21T07:54:53.001Z,11.52
2017-10-21T07:55:52.943Z,11.65
2017-10-21T07:56:52.927Z,11.81
2017-10-21T07:57:52.924Z,11.94
2017-10-21T07:58:52.884Z,12.13
2017-10-21T07:59:52.886Z,12.25
2017-10-21T08:00:52.857Z,12.35
2017-10-21T08:01:52.821Z,12.45
2017-10-21T08:02:53.746Z,12.42
2017-10-21T08:03:52.787Z,12.46
2017-10-21T08:04:52.777Z,12.65
2017-10-21T08:05:52.744Z,13.00
2017-10-21T08:06:53.310Z,13.27
2017-10-21T08:07:52.774Z,13.62
2017-10-21T08:08:52.734Z,13.99
2017-10-21T08:09:52.676Z,14.07
2017-10-21T08:10:52.649Z,14.12
2017-10-21T08:11:52.681Z,14.18
2017-10-21T08:12:52.647Z,14.22
2017-10-21T08:13:52.648Z,14.48
2017-10-21T08:14:52.604Z,14.78
2017-10-21T08:15:52.561Z,15.00
2017-10-21T08:16:52.588Z,15.11
2017-10-21T08:17:52.578Z,15.15
2017-10-21T08:18:52.499Z,15.17
2017-10-21T08:19:52.481Z,15.17
2017-10-21T08:20:52.455Z,15.17
2017-10-21T08:21:52.443Z,15.24
2017-10-21T08:22:52.419Z,15.14
2017-10-21T08:23:52.414Z,14.92
2017-10-21T08:24:52.391Z,14.91
2017-10-21T08:25:52.365Z,14.68
2017-10-21T08:26:52.354Z,14.53
2017-10-21T08:27:52.331Z,14.44
2017-10-21T08:28:52.327Z,14.45
2017-10-21T08:29:52.283Z,14.47
2017-10-21T08:30:52.275Z,14.48
2017-10-21T08:31:52.259Z,14.45
2017-10-21T08:32:52.249Z,14.41
2017-10-21T08:33:52.219Z,14.47
2017-10-21T08:34:52.269Z,14.47
2017-10-21T08:35:52.192Z,14.59
2017-10-21T08:36:52.184Z,14.59
2017-10-21T08:37:52.143Z,14.60
2017-10-21T08:38:52.143Z,14.68
2017-10-21T08:39:52.159Z,14.65
2017-10-21T08:40:52.104Z,14.78
2017-10-21T08:41:52.071Z,14.85
2017-10-21T08:42:52.059Z,14.89
2017-10-21T08:43:52.030Z,14.89
2017-10-21T08:44:52.046Z,14.88
2017-10-21T08:45:51.993Z,14.78
2017-10-21T08:46:52.805Z,14.84
2017-10-21T08:47:51.962Z,14.94
2017-10-21T08:48:51.952Z,14.97
2017-10-21T08:49:51.931Z,14.97
2017-10-21T08:50:51.914Z,14.91
2017-10-21T08:51:51.888Z,14.82
2017-10-21T08:52:51.880Z,14.84
2017-10-21T08:53:51.861Z,14.99
2017-10-21T08:54:51.859Z,15.03
2017-10-21T08:55:51.817Z,15.00
2017-10-21T08:56:51.817Z,15.07
2017-10-21T08:57:51.784Z,15.14
2017-10-21T08:58:51.790Z,15.14
2017-10-21T08:59:51.742Z,15.02
2017-10-21T09:00:51.741Z,15.02
2017-10-21T09:01:51.744Z,15.07
2017-10-21T09:02:51.703Z,15.00
2017-10-21T09:03:51.680Z,14.94
2017-10-21T09:04:51.705Z,14.92
2017-10-21T09:05:51.636Z,14.88
2017-10-21T09:06:51.617Z,14.78
2017-10-21T09:07:51.597Z,14.81
2017-10-21T09:08:51.589Z,14.72
2017-10-21T09:09:51.561Z,14.73
2017-10-21T09:10:51.550Z,14.69
2017-10-21T09:11:51.547Z,14.62
2017-10-21T09:12:51.547Z,14.50
2017-10-21T09:13:51.501Z,14.41
2017-10-21T09:14:51.472Z,14.32
2017-10-21T09:15:51.497Z,14.18
2017-10-21T09:16:51.454Z,14.23
2017-10-21T09:17:51.427Z,14.23
2017-10-21T09:18:51.414Z,14.12
2017-10-21T09:19:51.393Z,14.10
2017-10-21T09:20:51.376Z,14.12
2017-10-21T09:21:51.348Z,14.14
2017-10-21T09:22:51.329Z,14.12
2017-10-21T09:23:51.309Z,14.11
2017-10-21T09:24:51.290Z,14.12
2017-10-21T09:25:51.291Z,14.05
2017-10-21T09:26:51.252Z,14.03
2017-10-21T09:27:51.236Z,14.14
2017-10-21T09:28:51.230Z,14.15
2017-10-21T09:29:51.235Z,14.14
2017-10-21T09:30:51.184Z,14.23
2017-10-21T09:31:51.165Z,14.18
2017-10-21T09:32:51.140Z,14.18
2017-10-21T09:33:51.167Z,14.20
2017-10-21T09:34:51.117Z,14.18
2017-10-21T09:35:51.085Z,14.14
2017-10-21T09:36:51.071Z,14.18
2017-10-21T09:37:51.203Z,14.15
2017-10-21T09:38:51.062Z,14.14
2017-10-21T09:39:51.017Z,14.12
2017-10-21T09:40:50.992Z,14.12
2017-10-21T09:41:50.981Z,14.22
2017-10-21T09:42:50.956Z,14.18
2017-10-21T09:43:50.953Z,14.28
2017-10-21T09:44:50.918Z,14.12
2017-10-21T09:45:50.968Z,14.22
2017-10-21T09:46:50.885Z,14.22
2017-10-21T09:47:50.868Z,14.23
2017-10-21T09:48:50.842Z,14.23
2017-10-21T09:49:50.838Z,14.32
2017-10-21T09:50:50.814Z,14.40
2017-10-21T09:51:50.785Z,14.54
2017-10-21T09:52:50.764Z,14.82
2017-10-21T09:53:50.760Z,15.18
2017-10-21T09:54:50.739Z,15.51
2017-10-21T09:55:51.466Z,15.90
2017-10-21T09:56:50.697Z,16.53
2017-10-21T09:57:50.668Z,16.90
2017-10-21T09:58:50.670Z,17.23
2017-10-21T09:59:50.750Z,17.70
2017-10-21T10:00:50.617Z,18.52
2017-10-21T10:01:50.617Z,19.73
2017-10-21T10:02:50.577Z,20.48
2017-10-21T10:03:50.577Z,20.63
2017-10-21T10:04:50.541Z,20.48
2017-10-21T10:05:50.589Z,20.24
2017-10-21T10:06:50.604Z,19.88
2017-10-21T10:07:50.505Z,19.71
2017-10-21T10:08:50.493Z,19.51
2017-10-21T10:09:50.480Z,19.34
2017-10-21T10:10:50.451Z,19.15
2017-10-21T10:11:50.428Z,19.08
2017-10-21T10:12:50.440Z,19.09
2017-10-21T10:13:50.396Z,19.16
2017-10-21T10:14:50.397Z,19.48
2017-10-21T10:15:50.375Z,19.85
2017-10-21T10:16:50.365Z,19.99
2017-10-21T10:17:50.348Z,19.99
2017-10-21T10:18:50.377Z,19.89
2017-10-21T10:19:50.311Z,19.73
2017-10-21T10:20:50.459Z,19.74
2017-10-21T10:21:50.275Z,19.86
2017-10-21T10:22:50.272Z,19.89
2017-10-21T10:23:50.303Z,19.70
2017-10-21T10:24:50.224Z,19.30
2017-10-21T10:25:50.203Z,19.04
2017-10-21T10:26:50.245Z,18.63
2017-10-21T10:27:50.186Z,18.43
2017-10-21T10:28:50.287Z,18.20
2017-10-21T10:29:50.155Z,18.11
2017-10-21T10:30:50.131Z,17.98
2017-10-21T10:31:50.115Z,17.83
2017-10-21T10:32:50.336Z,17.51
2017-10-21T10:33:50.094Z,17.26
2017-10-21T10:34:50.068Z,17.14
2017-10-21T10:35:50.077Z,16.96
2017-10-21T10:36:50.050Z,16.79
2017-10-21T10:37:50.049Z,16.71
2017-10-21T10:38:50.010Z,16.66
2017-10-21T10:39:49.991Z,16.54
2017-10-21T10:40:49.967Z,16.53
2017-10-21T10:41:49.957Z,16.50
2017-10-21T10:42:49.953Z,16.35
2017-10-21T10:43:49.926Z,16.53
2017-10-21T10:44:49.897Z,16.53
2017-10-21T10:45:49.879Z,16.65
2017-10-21T10:46:49.874Z,16.74
2017-10-21T10:47:49.850Z,16.86
2017-10-21T10:48:49.994Z,16.86
2017-10-21T10:49:49.822Z,17.02
2017-10-21T10:50:49.816Z,16.96
2017-10-21T10:51:49.782Z,17.04
2017-10-21T10:52:49.771Z,17.12
2017-10-21T10:53:49.755Z,17.26
2017-10-21T10:54:49.736Z,17.22
2017-10-21T10:55:49.710Z,17.27
2017-10-21T10:56:49.712Z,17.23
2017-10-21T10:57:49.683Z,17.12
2017-10-21T10:58:49.671Z,17.06
2017-10-21T10:59:49.647Z,17.05
2017-10-21T11:00:49.644Z,16.96
2017-10-21T11:01:49.653Z,16.94
2017-10-21T11:02:49.617Z,16.87
2017-10-21T11:03:49.724Z,16.84
2017-10-21T11:04:49.579Z,17.05
2017-10-21T11:05:49.554Z,17.01
2017-10-21T11:06:49.565Z,17.22
2017-10-21T11:07:49.508Z,17.31
2017-10-21T11:08:49.500Z,17.41
2017-10-21T11:09:49.484Z,17.45
2017-10-21T11:10:49.713Z,17.56
2017-10-21T11:11:49.460Z,17.48
2017-10-21T11:12:49.435Z,17.27
2017-10-21T11:13:49.432Z,17.08
2017-10-21T11:14:49.401Z,16.78
2017-10-21T11:15:49.385Z,16.49
2017-10-21T11:16:49.387Z,16.26
2017-10-21T11:17:49.359Z,16.15
2017-10-21T11:18:49.462Z,16.09
2017-10-21T11:19:49.318Z,15.80
2017-10-21T11:20:49.352Z,15.80
2017-10-21T11:21:49.968Z,15.77
2017-10-21T11:22:49.325Z,15.61
2017-10-21T11:23:49.254Z,15.65
2017-10-21T11:24:49.222Z,15.61
2017-10-21T11:25:49.210Z,15.51
2017-10-21T11:27:49.440Z,15.37
2017-10-21T11:28:49.189Z,15.25
2017-10-21T11:29:49.165Z,15.11
2017-10-21T11:30:49.150Z,15.00
2017-10-21T11:31:49.124Z,14.84
2017-10-21T11:32:49.107Z,14.79
2017-10-21T11:34:10.086Z,14.72
2017-10-21T11:34:49.259Z,14.66
2017-10-21T11:35:49.065Z,14.60
2017-10-21T11:36:49.036Z,14.60
2017-10-21T11:37:49.018Z,14.50
2017-10-21T11:38:49.104Z,14.50
2017-10-21T11:40:09.984Z,14.43
2017-10-21T11:40:48.987Z,14.53
2017-10-21T11:41:49.136Z,14.54
2017-10-21T11:42:48.987Z,14.58
2017-10-21T11:43:48.920Z,14.59
2017-10-21T11:44:48.897Z,14.50
2017-10-21T11:46:10.026Z,14.33
2017-10-21T11:46:49.063Z,14.35
2017-10-21T11:47:49.429Z,14.44
2017-10-21T11:48:48.842Z,14.44
2017-10-21T11:49:48.969Z,14.48
2017-10-21T11:50:48.988Z,14.28
2017-10-21T11:52:09.788Z,14.32
2017-10-21T11:52:48.755Z,14.36
2017-10-21T11:53:48.754Z,14.26
2017-10-21T11:54:48.959Z,14.25
2017-10-21T11:55:48.709Z,14.20
2017-10-21T11:56:49.533Z,14.17
2017-10-21T11:58:09.664Z,14.17
2017-10-21T11:58:48.669Z,14.18
2017-10-21T11:59:48.634Z,14.20
2017-10-21T12:00:48.614Z,14.33
2017-10-21T12:01:48.589Z,14.44
2017-10-21T12:02:48.605Z,14.41
2017-10-21T12:04:09.574Z,14.47
2017-10-21T12:04:48.549Z,14.33
2017-10-21T12:05:48.536Z,14.23
2017-10-21T12:06:48.513Z,14.29
2017-10-21T12:07:48.488Z,14.30
2017-10-21T12:08:48.463Z,14.29
2017-10-21T12:10:09.475Z,14.44
2017-10-21T12:10:48.644Z,14.43
2017-10-21T12:11:48.408Z,14.55
2017-10-21T12:12:48.394Z,14.62
2017-10-21T12:13:48.368Z,14.78
2017-10-21T12:14:48.364Z,14.81
2017-10-21T12:16:09.344Z,14.79
2017-10-21T12:16:48.322Z,14.82
2017-10-21T12:17:48.322Z,14.85
2017-10-21T12:18:48.292Z,14.91
2017-10-21T12:19:48.283Z,14.82
2017-10-21T12:20:48.300Z,14.89
2017-10-21T12:22:09.233Z,14.84
2017-10-21T12:22:48.392Z,14.92
2017-10-21T12:23:48.214Z,14.99
2017-10-21T12:24:48.288Z,14.88
2017-10-21T12:25:48.156Z,15.06
2017-10-21T12:26:48.148Z,14.97
2017-10-21T12:28:09.290Z,15.02
2017-10-21T12:28:48.106Z,14.92
2017-10-21T12:29:48.095Z,14.94
2017-10-21T12:30:48.081Z,14.89
2017-10-21T12:31:48.081Z,14.89
2017-10-21T12:32:48.047Z,14.88
2017-10-21T12:34:09.021Z,15.00
2017-10-21T12:34:47.991Z,15.02
2017-10-21T12:35:47.996Z,14.97
2017-10-21T12:36:47.958Z,14.88
2017-10-21T12:37:47.950Z,14.78
2017-10-21T12:38:47.932Z,14.85
2017-10-21T12:40:08.918Z,14.89
2017-10-21T12:40:47.894Z,14.86
2017-10-21T12:41:47.880Z,14.85
2017-10-21T12:42:47.854Z,14.94
2017-10-21T12:43:47.839Z,14.92
2017-10-21T12:44:47.826Z,15.10
2017-10-21T12:46:08.817Z,15.22
2017-10-21T12:46:47.789Z,15.40
2017-10-21T12:47:47.759Z,15.57
2017-10-21T12:48:47.742Z,15.75
2017-10-21T12:49:47.722Z,15.73
2017-10-21T12:50:47.751Z,15.77
2017-10-21T12:52:08.690Z,15.68
2017-10-21T12:52:47.672Z,15.82
2017-10-21T12:53:47.661Z,15.80
2017-10-21T12:54:47.639Z,15.75
2017-10-21T12:55:47.621Z,15.70
2017-10-21T12:56:47.609Z,15.79
2017-10-21T12:58:08.601Z,15.68
2017-10-21T12:58:47.577Z,15.72
2017-10-21T12:59:47.586Z,15.68
2017-10-21T13:00:47.532Z,15.72
2017-10-21T13:01:47.512Z,15.65
2017-10-21T13:02:47.490Z,15.77
2017-10-21T13:04:08.492Z,15.79
2017-10-21T13:04:47.469Z,15.73
2017-10-21T13:05:47.472Z,15.94
2017-10-21T13:06:47.427Z,15.91